الصفحة الرئيسية
METAR-TAF:

METAR-TAF

مطار :

مطار سبليت

سبليت, كرواتيا

دائرة عرض: 43-32N, خط طول: 016-18E, ارتفاع: 19 متر

مراقبة الطقس الحالي

تاريخ ووقت الإصدار 28 دقيقة قبل الساعة 10:00UTC
ريح 3 عقدة من الشرق, الاتجاه يتراوح بين الشمال الشرقي و الجنوب/الجنوب الشرقي
درجة الحرارة 14°درجة مئوية
الرطوبة 44%
ضغط 1024 hPa
الرؤية 10 كم أو أكثر
الغيوم لا تقل 1500 م ولا وجود لمزنة ركامية السحاب الأسود

METAR: LDSP 251000Z 10003KT 050V160 CAVOK 14/02 Q1024 NOSIG

زمن: 11:28 (10:28 UTC)

توقعات

تاريخ ووقت الإصدار 5ساعات و 3 دقيقة قبل الساعة 05:25UTC
التوقعات صالحة من25 الساعة 06 UTC إلى 26 الساعة 06 UTC
ريح 2 عقدةمن اتجاهات متغيرة
الرؤية 10 كم أو أكثر
الغيوم لا تقل 1500 م ولا وجود لمزنة ركامية السحاب الأسود

TAF: LDSP 250525Z 2506/2606 VRB02KT CAVOK TX16/2512Z TN06/2603Z

أرصاد الطقس والتوقعات من أكثر من 4000 مطار (تقارير الطقس للمطار METAR والتنبؤ بالطقس بالمطارTAF).

المحطات المتاحة هي النقط الصفراء والحمراء على الخريطة.

حرك المؤشر فوق النقطة لمعرفة اسم المحطة.

ثم انقر لمعرفة أرصاد وتوقعات الطقس.

لتغيير الخارطة: اضغط على الأزرار الخضراء مع رمز الصليب الأسود للتكبير. على الزر الأخضر مع شرطة للتصغير، أو على الأسهم الخضراء للخرائط المجاورة.


METAR-TAF: